Walnut Hill, Florida
Current Conditions -  °F | °C
As of 8:56 AM on Friday 24 Oct 2014 (Local Time) from KNSE Reporting Station
Few Clouds Few Clouds  
Wind Chill: 60°   Ceiling: Unl
Heat Index: 60°   Visibility: 10mi
Dew Point: 48°   Wind: 6mph
Humidity: 64%   Direction: 10°N
Pressure: 30.09"   Gusts: NA
Location:  30.8697°N, 87.4663°W
Report Text: KNSE 241356Z 01005KT 10SM FEW120 FEW180 16/09 A3009 RMK AO2 SLP175 T01560089 $
Loading
Personal Weather Stations






























Interactive Weather Map New forecast layout! Learn more

10-Day Weather Forecast

Advertisements
Track Severe Weather on mobile